Time;durP1;ratioP1;P1;durP2;ratioP2;P2;SDS_P1;SDS_P2;PMS_P1;PMS_P2;Temp;Humidity;BMP_temperature;BMP_pressure;BME280_temperature;BME280_humidity;BME280_pressure;Samples;Min_cycle;Max_cycle;Signal;HPM_P1;HPM_P2
2023/05/21 00:00:19;;;;;;;7.43;3.70;;;13.70;99.90;;;;;;5135022;27;20043;-58
2023/05/21 00:02:45;;;;;;;7.80;3.70;;;13.50;99.90;;;;;;5133081;27;20039;-58
2023/05/21 00:05:13;;;;;;;6.97;3.28;;;13.70;99.90;;;;;;5133567;27;20456;-59
2023/05/21 00:07:40;;;;;;;8.20;3.97;;;13.60;99.90;;;;;;5115801;27;20043;-59
2023/05/21 00:10:06;;;;;;;7.47;3.60;;;13.60;99.90;;;;;;5134204;27;20085;-59
2023/05/21 00:12:32;;;;;;;7.50;4.00;;;13.60;99.90;;;;;;5132151;27;20054;-59
2023/05/21 00:15:00;;;;;;;10.02;3.47;;;13.60;99.90;;;;;;5133377;27;20812;-59
2023/05/21 00:17:26;;;;;;;7.35;3.85;;;13.60;99.90;;;;;;5132217;27;20324;-60
2023/05/21 00:19:52;;;;;;;10.68;3.92;;;13.40;99.90;;;;;;5133483;27;20098;-59
2023/05/21 00:22:18;;;;;;;6.43;3.90;;;13.40;99.90;;;;;;5096339;27;20747;-59
2023/05/21 00:24:44;;;;;;;7.30;3.80;;;13.30;99.90;;;;;;5132258;27;20043;-57
2023/05/21 00:27:13;;;;;;;8.10;3.90;;;13.60;99.90;;;;;;5133069;27;20080;-59
2023/05/21 00:29:39;;;;;;;7.20;3.65;;;13.40;99.90;;;;;;5134983;27;20036;-59
2023/05/21 00:32:05;;;;;;;9.07;3.92;;;13.50;99.90;;;;;;5130937;27;20042;-59
2023/05/21 00:34:31;;;;;;;6.88;3.33;;;13.50;99.90;;;;;;5131295;27;20083;-59
2023/05/21 00:36:56;;;;;;;7.10;3.70;;;13.50;99.90;;;;;;5132075;27;20986;-59
2023/05/21 00:39:23;;;;;;;6.38;3.47;;;13.40;99.90;;;;;;5133494;27;20042;-59
2023/05/21 00:41:49;;;;;;;8.20;4.22;;;13.30;99.90;;;;;;5113730;27;20047;-58
2023/05/21 00:44:17;;;;;;;8.30;4.20;;;13.40;99.90;;;;;;5132136;27;20150;-59
2023/05/21 00:46:43;;;;;;;7.93;3.65;;;13.40;99.90;;;;;;5133464;27;20114;-58
2023/05/21 00:49:10;;;;;;;6.78;4.13;;;13.60;99.90;;;;;;5131065;27;20054;-58
2023/05/21 00:51:36;;;;;;;7.43;3.85;;;13.50;99.90;;;;;;5131910;27;20074;-59
2023/05/21 00:54:02;;;;;;;7.13;3.55;;;13.40;99.90;;;;;;5131529;27;20091;-59
2023/05/21 00:56:28;;;;;;;5.50;3.40;;;13.30;99.90;;;;;;5113370;27;20306;-59
2023/05/21 00:58:56;;;;;;;6.93;3.70;;;12.80;99.90;;;;;;5133309;27;20118;-59
2023/05/21 01:01:24;;;;;;;11.60;4.30;;;13.40;99.90;;;;;;5133443;27;20050;-58
2023/05/21 01:03:56;;;;;;;5.85;3.13;;;13.30;99.90;;;;;;5131207;27;20298;-59
2023/05/21 01:06:22;;;;;;;9.40;4.18;;;13.40;99.90;;;;;;5130144;27;20931;-58
2023/05/21 01:08:49;;;;;;;9.30;4.07;;;13.40;99.90;;;;;;5131284;27;20691;-59
2023/05/21 01:11:16;;;;;;;7.82;3.88;;;13.40;99.90;;;;;;5133264;27;20115;-59
2023/05/21 01:13:44;;;;;;;6.03;3.70;;;13.20;99.90;;;;;;5132721;27;20043;-57
2023/05/21 01:16:12;;;;;;;14.13;4.38;;;13.20;99.90;;;;;;5132119;27;20719;-58
2023/05/21 01:18:38;;;;;;;7.75;3.80;;;13.30;99.90;;;;;;5133007;27;20202;-56
2023/05/21 01:21:06;;;;;;;10.68;4.05;;;13.20;99.90;;;;;;5131787;27;20130;-59
2023/05/21 01:23:32;;;;;;;9.07;4.40;;;13.20;99.90;;;;;;5133102;27;20046;-59
2023/05/21 01:25:58;;;;;;;9.60;3.88;;;11.70;99.90;;;;;;5113953;27;20047;-59
2023/05/21 01:28:23;;;;;;;7.65;3.90;;;13.30;99.90;;;;;;5132566;27;20038;-58
2023/05/21 01:30:49;;;;;;;7.40;4.05;;;13.20;99.90;;;;;;5134467;27;20022;-59
2023/05/21 01:33:25;;;;;;;7.47;4.38;;;13.30;99.90;;;;;;5115310;27;20075;-58
2023/05/21 01:36:01;;;;;;;6.63;4.10;;;13.20;99.90;;;;;;5132229;27;20062;-58
2023/05/21 01:38:35;;;;;;;7.35;4.40;;;13.10;99.90;;;;;;5130338;27;20054;-59
2023/05/21 01:41:05;;;;;;;7.53;4.05;;;13.20;99.90;;;;;;5131716;27;20769;-58
2023/05/21 01:43:34;;;;;;;9.35;4.43;;;13.20;99.90;;;;;;5130299;27;20039;-59
2023/05/21 01:46:01;;;;;;;9.43;4.32;;;13.20;99.90;;;;;;5131987;27;20286;-58
2023/05/21 01:48:28;;;;;;;8.40;4.22;;;15.30;99.90;;;;;;5130578;27;20047;-59
2023/05/21 01:50:56;;;;;;;9.20;3.92;;;13.30;99.90;;;;;;5114029;27;20114;-59
2023/05/21 01:53:22;;;;;;;8.00;4.57;;;13.20;99.90;;;;;;5131241;27;20581;-58
2023/05/21 01:55:48;;;;;;;7.43;4.22;;;13.20;99.90;;;;;;5130714;27;20129;-58
2023/05/21 01:58:17;;;;;;;8.10;4.20;;;13.20;99.90;;;;;;5131621;27;20041;-57
2023/05/21 02:00:46;;;;;;;7.45;3.97;;;13.20;99.90;;;;;;5114824;27;20384;-58
2023/05/21 02:03:15;;;;;;;10.25;4.30;;;13.10;99.90;;;;;;5131035;27;20058;-59
2023/05/21 02:05:41;;;;;;;8.32;4.55;;;13.20;99.90;;;;;;5131864;27;20411;-60
2023/05/21 02:08:07;;;;;;;8.75;4.13;;;13.10;99.90;;;;;;5112870;27;20051;-58
2023/05/21 02:10:34;;;;;;;8.77;4.40;;;13.10;99.90;;;;;;5131472;27;20038;-58
2023/05/21 02:13:00;;;;;;;7.53;4.68;;;13.20;99.90;;;;;;5129427;27;20080;-58
2023/05/21 02:15:26;;;;;;;7.68;5.10;;;13.10;99.90;;;;;;5131926;27;20519;-58
2023/05/21 02:17:51;;;;;;;10.52;5.28;;;13.00;99.90;;;;;;5134875;27;20070;-59
2023/05/21 02:20:18;;;;;;;9.25;5.07;;;13.00;99.90;;;;;;5135357;27;20043;-59
2023/05/21 02:22:46;;;;;;;11.77;5.40;;;13.00;99.90;;;;;;5135668;27;20578;-59
2023/05/21 02:25:14;;;;;;;13.00;6.43;;;13.00;99.90;;;;;;5134810;27;20115;-59
2023/05/21 02:27:41;;;;;;;9.95;6.25;;;13.10;99.90;;;;;;5135081;27;20100;-59
2023/05/21 02:30:09;;;;;;;11.77;6.70;;;13.20;99.90;;;;;;5134599;27;20126;-59
2023/05/21 02:32:35;;;;;;;11.18;6.07;;;13.10;99.90;;;;;;5136252;27;20045;-59
2023/05/21 02:35:03;;;;;;;13.95;7.68;;;13.10;99.90;;;;;;5135968;27;20053;-58
2023/05/21 02:37:32;;;;;;;14.40;7.45;;;13.00;99.90;;;;;;5135694;27;20123;-58
2023/05/21 02:39:58;;;;;;;13.77;8.07;;;13.00;99.90;;;;;;5134611;27;20561;-58
2023/05/21 02:42:24;;;;;;;12.75;7.88;;;12.90;99.90;;;;;;5134949;27;20034;-58
2023/05/21 02:44:50;;;;;;;14.60;8.20;;;12.90;99.90;;;;;;5135352;27;20050;-58
2023/05/21 02:47:19;;;;;;;9.93;7.22;;;13.00;99.90;;;;;;5117261;27;20049;-59
2023/05/21 02:49:45;;;;;;;21.60;8.93;;;13.00;99.90;;;;;;5135968;27;20142;-58
2023/05/21 02:52:12;;;;;;;14.50;7.97;;;13.10;99.90;;;;;;5134281;27;20053;-59
2023/05/21 02:54:38;;;;;;;16.50;8.57;;;12.90;99.90;;;;;;5136651;27;20499;-58
2023/05/21 02:57:04;;;;;;;14.75;8.50;;;12.90;99.90;;;;;;5115322;27;20049;-58
2023/05/21 02:59:29;;;;;;;18.08;8.13;;;13.00;99.90;;;;;;5136569;27;20031;-58
2023/05/21 03:01:55;;;;;;;14.88;8.13;;;12.80;99.90;;;;;;5136802;27;20506;-58
2023/05/21 03:04:21;;;;;;;15.15;8.38;;;12.80;99.90;;;;;;5117121;27;20042;-59
2023/05/21 03:06:50;;;;;;;15.07;8.45;;;12.60;99.90;;;;;;5133092;27;20041;-59
2023/05/21 03:09:16;;;;;;;14.98;8.60;;;12.70;99.90;;;;;;5134155;27;20045;-59
2023/05/21 03:11:42;;;;;;;16.70;7.97;;;12.70;99.90;;;;;;5105985;27;20054;-58
2023/05/21 03:14:08;;;;;;;15.88;8.05;;;12.80;99.90;;;;;;5132957;27;20106;-59
2023/05/21 03:16:34;;;;;;;14.20;7.63;;;12.70;99.90;;;;;;5136088;27;20042;-58
2023/05/21 03:19:00;;;;;;;12.23;6.90;;;12.80;99.90;;;;;;5134334;27;20042;-59
2023/05/21 03:21:28;;;;;;;13.35;6.95;;;12.60;99.90;;;;;;5135815;27;20619;-59
2023/05/21 03:23:58;;;;;;;14.88;6.85;;;12.80;99.90;;;;;;5133297;27;20038;-57
2023/05/21 03:26:26;;;;;;;14.90;8.48;;;13.70;99.90;;;;;;5133419;27;20061;-58
2023/05/21 03:28:52;;;;;;;15.82;7.47;;;12.70;99.90;;;;;;5132289;27;20045;-58
2023/05/21 03:31:18;;;;;;;16.90;7.63;;;12.60;99.90;;;;;;5116398;27;20046;-59
2023/05/21 03:33:44;;;;;;;12.55;7.60;;;12.90;99.90;;;;;;5134038;27;20058;-58
2023/05/21 03:36:10;;;;;;;11.30;7.10;;;12.80;99.90;;;;;;5114991;27;20041;-59
2023/05/21 03:38:35;;;;;;;11.43;7.28;;;12.90;99.90;;;;;;5132876;27;20157;-59
2023/05/21 03:41:01;;;;;;;13.63;7.47;;;12.70;99.90;;;;;;5134773;27;20076;-59
2023/05/21 03:43:27;;;;;;;12.07;7.70;;;12.50;99.90;;;;;;5135129;27;20054;-60
2023/05/21 03:45:54;;;;;;;16.30;7.57;;;12.60;99.90;;;;;;5134647;27;20060;-59
2023/05/21 03:48:19;;;;;;;10.88;6.60;;;12.60;99.90;;;;;;5132741;27;20047;-58
2023/05/21 03:50:45;;;;;;;12.70;7.40;;;12.40;99.90;;;;;;5134250;27;20054;-59
2023/05/21 03:53:12;;;;;;;12.82;7.57;;;12.40;99.90;;;;;;5132656;27;20526;-59
2023/05/21 03:55:38;;;;;;;14.43;8.80;;;12.50;99.90;;;;;;5133344;27;20043;-58
2023/05/21 03:58:04;;;;;;;13.45;7.68;;;12.70;99.90;;;;;;5133510;27;20119;-58
2023/05/21 04:00:31;;;;;;;16.92;8.15;;;12.60;99.90;;;;;;5136232;27;20495;-58
2023/05/21 04:02:57;;;;;;;16.85;8.43;;;12.70;99.90;;;;;;5133634;27;20503;-59
2023/05/21 04:05:23;;;;;;;12.50;7.82;;;12.50;99.90;;;;;;5132819;27;20737;-59
2023/05/21 04:07:49;;;;;;;13.23;8.23;;;12.50;99.90;;;;;;5132798;27;20148;-59
2023/05/21 04:10:15;;;;;;;15.23;8.20;;;12.50;99.90;;;;;;5135384;27;20049;-58
2023/05/21 04:12:40;;;;;;;16.30;8.95;;;12.60;99.90;;;;;;5133831;27;20054;-57
2023/05/21 04:15:07;;;;;;;16.80;8.80;;;12.40;99.90;;;;;;5115124;27;20046;-58
2023/05/21 04:17:34;;;;;;;19.52;8.23;;;12.50;99.90;;;;;;5114133;27;20047;-59
2023/05/21 04:20:00;;;;;;;15.43;8.20;;;12.40;99.90;;;;;;5132630;27;20047;-59
2023/05/21 04:22:25;;;;;;;12.38;7.60;;;12.50;99.90;;;;;;5113121;27;20085;-58
2023/05/21 04:24:53;;;;;;;15.00;8.27;;;12.60;99.90;;;;;;5131773;27;20153;-59
2023/05/21 04:27:22;;;;;;;18.17;8.15;;;12.50;99.90;;;;;;5130350;27;20567;-59
2023/05/21 04:29:49;;;;;;;14.52;7.45;;;12.50;99.90;;;;;;5112998;27;20443;-59
2023/05/21 04:32:16;;;;;;;14.85;7.93;;;12.50;99.90;;;;;;5133734;27;20039;-58
2023/05/21 04:34:43;;;;;;;16.25;7.60;;;12.50;99.90;;;;;;5133616;27;20042;-58
2023/05/21 04:37:09;;;;;;;12.93;7.18;;;12.70;99.90;;;;;;5131119;27;20039;-59
2023/05/21 04:39:35;;;;;;;11.48;6.47;;;12.70;99.90;;;;;;5131592;27;20035;-59
2023/05/21 04:42:02;;;;;;;16.30;7.28;;;14.70;99.90;;;;;;5132826;27;20062;-59
2023/05/21 04:44:28;;;;;;;13.23;6.15;;;12.50;99.90;;;;;;5132181;27;20062;-58
2023/05/21 04:46:56;;;;;;;11.98;6.45;;;12.70;99.90;;;;;;5133086;27;20533;-59
2023/05/21 04:49:22;;;;;;;12.73;6.45;;;12.60;99.90;;;;;;5131051;27;20058;-59
2023/05/21 04:51:48;;;;;;;13.95;6.25;;;12.60;99.90;;;;;;5131849;27;20079;-59
2023/05/21 04:54:14;;;;;;;14.00;6.55;;;12.60;99.90;;;;;;5132103;27;20050;-59
2023/05/21 04:56:40;;;;;;;17.48;6.15;;;12.70;99.90;;;;;;5112470;27;20213;-59
2023/05/21 04:59:05;;;;;;;11.77;5.43;;;12.80;99.90;;;;;;5112948;27;20047;-59
2023/05/21 05:01:33;;;;;;;15.50;5.90;;;13.00;99.90;;;;;;5133301;27;20042;-58
2023/05/21 05:04:00;;;;;;;10.75;5.30;;;12.80;99.90;;;;;;5134102;27;20380;-58
2023/05/21 05:06:25;;;;;;;16.75;5.55;;;12.80;99.90;;;;;;5131578;27;20058;-59
2023/05/21 05:08:51;;;;;;;13.27;5.57;;;11.60;99.90;;;;;;5133732;27;20031;-59
2023/05/21 05:11:17;;;;;;;13.70;5.65;;;13.00;99.90;;;;;;5132647;27;20035;-58
2023/05/21 05:13:43;;;;;;;13.38;5.57;;;13.10;99.90;;;;;;5133133;27;20146;-58
2023/05/21 05:16:08;;;;;;;12.43;5.53;;;13.00;99.90;;;;;;5132152;27;20043;-59
2023/05/21 05:18:35;;;;;;;13.95;5.70;;;12.80;99.90;;;;;;5133162;27;20058;-58
2023/05/21 05:21:01;;;;;;;10.80;5.15;;;12.90;99.90;;;;;;5131512;27;20053;-58
2023/05/21 05:23:27;;;;;;;9.50;5.20;;;13.00;99.90;;;;;;5132604;27;20844;-58
2023/05/21 05:25:52;;;;;;;9.45;4.57;;;13.00;99.90;;;;;;5131992;27;20046;-58
2023/05/21 05:28:18;;;;;;;11.82;5.38;;;13.00;99.90;;;;;;5130424;27;20045;-59
2023/05/21 05:30:44;;;;;;;11.85;5.30;;;13.00;99.90;;;;;;5112182;27;20109;-59
2023/05/21 05:33:10;;;;;;;14.98;5.60;;;13.10;99.90;;;;;;5130559;27;20150;-59
2023/05/21 05:35:37;;;;;;;18.75;5.70;;;13.30;99.90;;;;;;5132147;27;20050;-59
2023/05/21 05:38:02;;;;;;;10.93;4.85;;;13.30;99.90;;;;;;5129903;27;20038;-58
2023/05/21 05:40:28;;;;;;;12.63;4.97;;;13.20;99.90;;;;;;5129895;27;20054;-59
2023/05/21 05:42:54;;;;;;;11.48;5.38;;;13.80;99.90;;;;;;5131630;27;20978;-59
2023/05/21 05:45:20;;;;;;;12.60;4.70;;;13.20;99.90;;;;;;5131378;27;20099;-59
2023/05/21 05:47:45;;;;;;;13.68;5.47;;;13.30;99.90;;;;;;5130641;27;20130;-59
2023/05/21 05:50:11;;;;;;;13.10;4.75;;;13.40;99.90;;;;;;5131614;27;20071;-58
2023/05/21 05:52:37;;;;;;;8.93;4.45;;;13.80;99.90;;;;;;5136710;27;20151;-59
2023/05/21 05:55:03;;;;;;;10.65;5.00;;;13.60;99.90;;;;;;5134907;27;20046;-56
2023/05/21 05:57:29;;;;;;;10.88;4.05;;;14.00;99.90;;;;;;5116762;27;20094;-58
2023/05/21 05:59:55;;;;;;;11.38;4.65;;;14.10;99.90;;;;;;5134284;27;22021;-59
2023/05/21 06:02:21;;;;;;;13.43;4.85;;;14.30;99.90;;;;;;5137744;27;20046;-59
2023/05/21 06:04:46;;;;;;;11.88;4.68;;;14.30;99.90;;;;;;5134385;27;20154;-59
2023/05/21 06:07:12;;;;;;;12.65;4.60;;;14.60;99.90;;;;;;5135412;27;20069;-59
2023/05/21 06:09:38;;;;;;;15.40;4.50;;;14.60;99.90;;;;;;5135765;27;20050;-58
2023/05/21 06:12:06;;;;;;;11.07;4.75;;;14.70;99.90;;;;;;5135084;27;20138;-59
2023/05/21 06:14:31;;;;;;;11.27;5.18;;;14.90;99.90;;;;;;5134015;27;20542;-57
2023/05/21 06:16:57;;;;;;;12.60;4.70;;;14.70;99.90;;;;;;5133679;27;20054;-59
2023/05/21 06:19:23;;;;;;;9.80;4.60;;;14.20;99.90;;;;;;5115897;27;20490;-58
2023/05/21 06:21:49;;;;;;;9.10;4.90;;;14.70;99.90;;;;;;5133962;27;20098;-58
2023/05/21 06:24:15;;;;;;;8.90;4.30;;;14.70;99.90;;;;;;5136811;27;20503;-58
2023/05/21 06:26:41;;;;;;;11.02;4.65;;;14.80;99.90;;;;;;5136762;27;20053;-58
2023/05/21 06:29:07;;;;;;;10.60;4.68;;;14.90;99.90;;;;;;5135292;27;20444;-58
2023/05/21 06:31:33;;;;;;;10.07;4.88;;;15.00;99.90;;;;;;5136483;27;20133;-58
2023/05/21 06:33:59;;;;;;;13.60;4.95;;;14.80;99.90;;;;;;5137453;27;20117;-58
2023/05/21 06:36:28;;;;;;;10.77;4.82;;;15.00;99.90;;;;;;5137014;27;20078;-57
2023/05/21 06:38:57;;;;;;;9.07;4.22;;;14.60;99.90;;;;;;5135170;27;20114;-58
2023/05/21 06:41:23;;;;;;;11.20;4.70;;;15.30;99.90;;;;;;5116608;27;20052;-58
2023/05/21 06:43:48;;;;;;;7.65;4.20;;;15.20;99.90;;;;;;5135263;27;20046;-58
2023/05/21 06:46:14;;;;;;;10.98;4.57;;;15.30;99.90;;;;;;5136705;27;20116;-58
2023/05/21 06:48:40;;;;;;;16.35;4.68;;;15.50;99.90;;;;;;5134852;27;20954;-58
2023/05/21 06:51:06;;;;;;;13.45;4.47;;;15.40;99.90;;;;;;5134953;27;20046;-58
2023/05/21 06:53:32;;;;;;;11.02;4.30;;;15.70;99.90;;;;;;5115318;27;20163;-58
2023/05/21 06:55:57;;;;;;;9.23;4.50;;;16.00;99.90;;;;;;5134979;27;20031;-57
2023/05/21 06:58:23;;;;;;;9.90;4.13;;;15.90;99.90;;;;;;5134217;27;20050;-58
2023/05/21 07:00:49;;;;;;;10.63;4.35;;;16.20;99.90;;;;;;5134899;27;20039;-57
2023/05/21 07:03:14;;;;;;;7.07;4.20;;;16.50;99.90;;;;;;5116806;27;20046;-58
2023/05/21 07:05:40;;;;;;;10.90;4.63;;;16.90;99.90;;;;;;5132654;27;20141;-58
2023/05/21 07:08:06;;;;;;;8.18;3.58;;;17.30;99.90;;;;;;5133128;27;20114;-59
2023/05/21 07:10:31;;;;;;;12.40;4.53;;;17.00;99.90;;;;;;5134431;27;20040;-57
2023/05/21 07:12:57;;;;;;;11.15;4.38;;;17.10;99.90;;;;;;5111458;27;20197;-58
2023/05/21 07:15:23;;;;;;;14.07;4.53;;;17.20;99.90;;;;;;5113596;27;20035;-58
2023/05/21 07:17:49;;;;;;;9.27;3.85;;;17.00;99.90;;;;;;5112411;27;24147;-58
2023/05/21 07:20:14;;;;;;;9.90;4.22;;;16.90;99.90;;;;;;5113991;27;20459;-57
2023/05/21 07:22:41;;;;;;;9.02;4.32;;;17.00;99.90;;;;;;5111718;27;20508;-57
2023/05/21 07:25:08;;;;;;;7.47;4.03;;;17.00;99.90;;;;;;5113474;27;20050;-58
2023/05/21 07:27:33;;;;;;;10.43;4.40;;;16.70;99.90;;;;;;5113369;27;20042;-59
2023/05/21 07:29:59;;;;;;;7.93;4.03;;;16.60;99.90;;;;;;5113200;27;20373;-60
2023/05/21 07:32:27;;;;;;;9.70;4.50;;;16.50;99.90;;;;;;5114230;27;20042;-60
2023/05/21 07:34:54;;;;;;;10.35;4.43;;;16.40;99.90;;;;;;5111883;27;20043;-60
2023/05/21 07:37:20;;;;;;;9.48;3.78;;;16.00;99.90;;;;;;5114099;27;20272;-60
2023/05/21 07:39:45;;;;;;;8.18;4.00;;;16.10;99.90;;;;;;5112844;27;20043;-60
2023/05/21 07:42:11;;;;;;;8.88;3.83;;;15.80;99.90;;;;;;5113725;27;20399;-59
2023/05/21 07:44:37;;;;;;;10.40;4.57;;;16.00;99.90;;;;;;5112526;27;20418;-60
2023/05/21 07:47:03;;;;;;;8.88;3.83;;;16.10;99.90;;;;;;5111345;27;20043;-60
2023/05/21 07:49:29;;;;;;;6.97;3.45;;;16.30;99.90;;;;;;5112272;27;20092;-60
2023/05/21 07:51:55;;;;;;;8.13;4.30;;;16.50;99.90;;;;;;5113036;27;20039;-59
2023/05/21 07:54:21;;;;;;;7.47;3.85;;;16.50;99.90;;;;;;5114182;27;20459;-59
2023/05/21 07:56:47;;;;;;;8.60;4.20;;;16.90;99.90;;;;;;5111043;27;20051;-60
2023/05/21 07:59:16;;;;;;;10.77;4.10;;;17.10;99.90;;;;;;5113755;27;20043;-59
2023/05/21 08:01:42;;;;;;;11.10;4.85;;;17.10;99.90;;;;;;5113770;27;20043;-60
2023/05/21 08:04:08;;;;;;;8.20;4.25;;;17.40;99.90;;;;;;5115718;27;20051;-60
2023/05/21 08:06:36;;;;;;;7.75;3.60;;;17.40;99.90;;;;;;5112425;27;20047;-60
2023/05/21 08:09:02;;;;;;;8.95;3.90;;;17.60;99.90;;;;;;5113474;27;20160;-60
2023/05/21 08:11:28;;;;;;;10.32;3.88;;;17.50;99.90;;;;;;5113446;27;20048;-60
2023/05/21 08:13:55;;;;;;;11.15;3.50;;;17.00;99.90;;;;;;5132133;27;20051;-60
2023/05/21 08:16:22;;;;;;;7.20;3.65;;;18.60;99.90;;;;;;5132887;27;20411;-60
2023/05/21 08:18:48;;;;;;;8.40;3.80;;;18.40;99.90;;;;;;5132873;27;20053;-60
2023/05/21 08:21:15;;;;;;;9.65;3.67;;;18.50;99.90;;;;;;5130768;27;20501;-60
2023/05/21 08:23:42;;;;;;;9.18;3.45;;;18.30;99.90;;;;;;5133341;27;20103;-60
2023/05/21 08:26:07;;;;;;;9.27;3.90;;;18.10;99.90;;;;;;5133247;27;20057;-60
2023/05/21 08:28:35;;;;;;;9.52;3.97;;;18.80;99.90;;;;;;5132156;27;20035;-60
2023/05/21 08:31:01;;;;;;;8.48;3.88;;;18.40;99.90;;;;;;5133259;27;20038;-60
2023/05/21 08:33:27;;;;;;;8.70;3.60;;;18.30;99.90;;;;;;5134309;27;20578;-60
2023/05/21 08:35:52;;;;;;;9.45;3.50;;;18.40;99.90;;;;;;5132181;27;20044;-60
2023/05/21 08:38:18;;;;;;;10.80;4.05;;;18.60;99.90;;;;;;5131139;27;20042;-59
2023/05/21 08:40:48;;;;;;;10.55;3.80;;;18.60;99.90;;;;;;5132296;27;20034;-60
2023/05/21 08:43:16;;;;;;;8.40;3.85;;;18.40;99.90;;;;;;5132322;27;20046;-60
2023/05/21 08:45:46;;;;;;;10.05;3.55;;;18.40;99.90;;;;;;5111761;27;20077;-59
2023/05/21 08:48:16;;;;;;;9.70;4.13;;;18.40;99.90;;;;;;5131318;27;20035;-60
2023/05/21 08:50:42;;;;;;;12.50;3.72;;;15.90;99.90;;;;;;5131128;27;20041;-61
2023/05/21 08:53:08;;;;;;;9.55;3.72;;;18.10;99.90;;;;;;5112957;27;20030;-60
2023/05/21 08:55:35;;;;;;;11.60;3.97;;;18.20;99.90;;;;;;5131946;27;20039;-59
2023/05/21 08:58:03;;;;;;;8.98;3.17;;;17.90;99.90;;;;;;5111782;27;20050;-60
2023/05/21 09:00:29;;;;;;;7.85;3.53;;;17.00;99.90;;;;;;5131146;27;24110;-61
2023/05/21 09:02:59;;;;;;;9.70;3.60;;;17.80;99.90;;;;;;5132740;27;20074;-59
2023/05/21 09:05:26;;;;;;;8.70;4.05;;;18.00;99.90;;;;;;5132009;27;20426;-60
2023/05/21 09:08:04;;;;;;;9.05;4.22;;;17.90;99.90;;;;;;5130854;27;20352;-60
2023/05/21 09:10:38;;;;;;;9.93;3.47;;;17.80;99.90;;;;;;5133407;27;20042;-60
2023/05/21 09:13:06;;;;;;;8.60;4.63;;;18.20;99.90;;;;;;5131414;27;20359;-60
2023/05/21 09:15:32;;;;;;;9.70;3.60;;;18.30;99.90;;;;;;5114951;27;20058;-60
2023/05/21 09:17:58;;;;;;;9.05;3.67;;;18.20;99.90;;;;;;5131673;27;20384;-60
2023/05/21 09:20:27;;;;;;;13.07;4.43;;;18.30;99.90;;;;;;5131400;27;20039;-60
2023/05/21 09:22:54;;;;;;;7.57;3.85;;;17.80;99.90;;;;;;5131578;27;20521;-60
2023/05/21 09:25:26;;;;;;;12.80;3.78;;;17.80;99.90;;;;;;5131949;27;20051;-60
2023/05/21 09:27:54;;;;;;;8.35;3.20;;;17.80;99.90;;;;;;5132508;27;20055;-59
2023/05/21 09:30:20;;;;;;;8.18;3.63;;;17.90;99.90;;;;;;5132080;27;20074;-59
2023/05/21 09:32:53;;;;;;;9.23;3.55;;;17.80;99.90;;;;;;5132165;27;20579;-59
2023/05/21 09:35:18;;;;;;;15.98;4.22;;;18.10;99.90;;;;;;5131592;27;20463;-60
2023/05/21 09:37:48;;;;;;;7.78;3.58;;;17.90;99.90;;;;;;5130778;27;20573;-59
2023/05/21 09:40:17;;;;;;;8.18;3.92;;;17.90;99.90;;;;;;5130726;27;20064;-60
2023/05/21 09:42:51;;;;;;;7.22;3.60;;;18.00;99.90;;;;;;5131190;27;20036;-60
2023/05/21 09:45:29;;;;;;;13.40;4.18;;;18.00;99.90;;;;;;5131084;27;20402;-59
2023/05/21 09:47:55;;;;;;;10.90;3.88;;;18.00;99.90;;;;;;5131335;27;20102;-60
2023/05/21 09:50:26;;;;;;;13.73;4.47;;;18.00;99.90;;;;;;5131073;27;20054;-60
2023/05/21 09:52:54;;;;;;;9.43;3.90;;;18.20;99.90;;;;;;5131431;27;20766;-60
2023/05/21 09:55:25;;;;;;;8.10;3.47;;;18.20;99.90;;;;;;5132172;27;20058;-60
2023/05/21 09:57:51;;;;;;;11.00;4.90;;;18.30;99.90;;;;;;5132024;27;20052;-59
2023/05/21 10:00:20;;;;;;;8.50;3.33;;;18.40;99.90;;;;;;5132473;27;20054;-60
2023/05/21 10:02:47;;;;;;;8.18;3.65;;;18.50;99.90;;;;;;5133597;27;20042;-60
2023/05/21 10:05:14;;;;;;;6.45;3.45;;;18.70;99.90;;;;;;5112818;27;20049;-60
2023/05/21 10:07:50;;;;;;;8.85;3.75;;;18.50;99.90;;;;;;5131268;27;20049;-60
2023/05/21 10:10:19;;;;;;;7.47;3.67;;;18.40;99.90;;;;;;5131512;27;20113;-60
2023/05/21 10:12:46;;;;;;;9.40;3.72;;;18.10;99.90;;;;;;5129767;27;20046;-60
2023/05/21 10:15:19;;;;;;;8.85;4.18;;;18.50;99.90;;;;;;5131538;27;20050;-61
2023/05/21 10:17:47;;;;;;;11.13;3.60;;;18.60;99.90;;;;;;5129970;27;20035;-60
2023/05/21 10:20:13;;;;;;;8.07;3.42;;;18.50;99.90;;;;;;5130351;27;20122;-60
2023/05/21 10:22:42;;;;;;;11.90;4.00;;;18.50;99.90;;;;;;5132001;27;20074;-62
2023/05/21 10:25:08;;;;;;;9.13;3.95;;;18.50;99.90;;;;;;5107481;27;20403;-60
2023/05/21 10:27:36;;;;;;;8.93;3.40;;;18.50;99.90;;;;;;5131471;27;20376;-60
2023/05/21 10:30:04;;;;;;;11.45;4.00;;;18.90;99.90;;;;;;5111683;27;20591;-59
2023/05/21 10:32:30;;;;;;;8.35;3.45;;;19.10;99.90;;;;;;5131208;27;20163;-60
2023/05/21 10:34:57;;;;;;;9.55;3.58;;;19.20;99.90;;;;;;5131312;27;20474;-60
2023/05/21 10:37:27;;;;;;;7.68;3.60;;;19.40;99.90;;;;;;5132581;27;20043;-60
2023/05/21 10:39:53;;;;;;;8.50;3.45;;;19.30;99.90;;;;;;5135089;27;20127;-60
2023/05/21 10:42:31;;;;;;;9.20;3.50;;;19.30;99.90;;;;;;5135880;27;20050;-60
2023/05/21 10:45:14;;;;;;;7.22;3.38;;;19.70;99.90;;;;;;5095880;27;20035;-60
2023/05/21 10:48:17;;;;;;;8.32;3.70;;;19.60;99.90;;;;;;5116733;27;20030;-60
2023/05/21 10:51:01;;;;;;;10.27;4.05;;;19.40;99.90;;;;;;5133529;27;20197;-60
2023/05/21 10:53:42;;;;;;;11.43;3.97;;;19.80;99.90;;;;;;5134202;27;20107;-60
2023/05/21 10:56:38;;;;;;;6.28;3.20;;;19.40;99.90;;;;;;5135880;27;20058;-60
2023/05/21 10:59:08;;;;;;;10.98;3.72;;;19.30;99.90;;;;;;5133739;27;20047;-60
2023/05/21 11:01:37;;;;;;;9.73;3.75;;;19.40;99.90;;;;;;5135193;27;20054;-60
2023/05/21 11:04:06;;;;;;;7.93;3.17;;;19.30;99.90;;;;;;5137401;27;20137;-60
2023/05/21 11:06:32;;;;;;;8.88;3.40;;;19.30;99.90;;;;;;5136102;27;20062;-61
2023/05/21 11:09:10;;;;;;;5.90;2.72;;;19.00;99.90;;;;;;5135540;27;20049;-59
2023/05/21 11:11:47;;;;;;;7.93;3.50;;;19.20;99.90;;;;;;5134922;27;20043;-60
2023/05/21 11:14:34;;;;;;;8.52;3.55;;;19.20;99.90;;;;;;5132929;27;20047;-59
2023/05/21 11:17:11;;;;;;;7.47;3.22;;;19.20;99.90;;;;;;5134251;27;20687;-59
2023/05/21 11:19:42;;;;;;;9.18;3.53;;;19.30;99.90;;;;;;5115492;27;20043;-60
2023/05/21 11:22:24;;;;;;;11.30;4.05;;;19.00;99.90;;;;;;5116058;27;20137;-60
2023/05/21 11:24:51;;;;;;;7.25;3.72;;;19.40;99.90;;;;;;5134087;27;20390;-60
2023/05/21 11:27:39;;;;;;;9.48;3.72;;;19.00;99.90;;;;;;5134638;27;20047;-59
2023/05/21 11:30:06;;;;;;;9.20;3.80;;;18.60;99.90;;;;;;5134752;27;20384;-60
2023/05/21 11:32:36;;;;;;;10.98;3.83;;;19.00;99.90;;;;;;5134707;27;20035;-60
2023/05/21 11:35:02;;;;;;;8.75;3.63;;;19.40;99.90;;;;;;5136136;27;20043;-60
2023/05/21 11:37:29;;;;;;;11.05;4.35;;;19.30;99.90;;;;;;5135085;27;20065;-60
2023/05/21 11:40:16;;;;;;;9.25;4.07;;;19.50;99.90;;;;;;5115504;27;20042;-60
2023/05/21 11:42:42;;;;;;;8.15;3.85;;;19.70;99.90;;;;;;5132268;27;20054;-61
2023/05/21 11:45:09;;;;;;;10.13;3.92;;;19.70;99.90;;;;;;5115165;27;20050;-61
2023/05/21 11:47:35;;;;;;;8.02;4.00;;;19.80;99.90;;;;;;5133794;27;20050;-61
2023/05/21 11:50:02;;;;;;;9.00;4.20;;;19.60;99.90;;;;;;5133149;27;20403;-61
2023/05/21 11:52:30;;;;;;;11.02;4.00;;;19.70;99.90;;;;;;5134431;27;20046;-60
2023/05/21 11:54:57;;;;;;;9.70;3.90;;;19.90;99.90;;;;;;5133431;27;20054;-61
2023/05/21 11:57:32;;;;;;;8.48;3.95;;;19.80;99.90;;;;;;5134470;27;20054;-60
2023/05/21 12:00:00;;;;;;;9.20;4.20;;;19.80;99.90;;;;;;5133136;27;20042;-60
2023/05/21 12:02:32;;;;;;;11.27;4.93;;;20.20;99.90;;;;;;5134140;27;20038;-60
2023/05/21 12:04:59;;;;;;;12.68;4.88;;;20.10;99.90;;;;;;5136296;27;20387;-60
2023/05/21 12:07:30;;;;;;;11.95;4.55;;;20.00;99.90;;;;;;5134882;27;20400;-60
2023/05/21 12:09:56;;;;;;;12.53;5.10;;;20.40;99.90;;;;;;5134146;27;20070;-60
2023/05/21 12:12:25;;;;;;;10.85;5.68;;;20.20;99.90;;;;;;5133503;27;20391;-60
2023/05/21 12:14:53;;;;;;;9.25;4.95;;;20.30;99.90;;;;;;5132424;27;20045;-60
2023/05/21 12:17:23;;;;;;;11.00;4.75;;;20.50;99.90;;;;;;5133854;27;20103;-59
2023/05/21 12:19:51;;;;;;;10.32;5.10;;;20.30;99.90;;;;;;5133264;27;20034;-60
2023/05/21 12:22:17;;;;;;;9.98;4.93;;;20.30;99.90;;;;;;5132187;27;20046;-60
2023/05/21 12:24:43;;;;;;;15.40;5.55;;;20.10;99.90;;;;;;5134457;27;20538;-60
2023/05/21 12:27:12;;;;;;;10.35;5.45;;;19.90;99.90;;;;;;5133768;27;20035;-60
2023/05/21 12:29:39;;;;;;;12.93;5.32;;;19.90;99.90;;;;;;5132053;27;20628;-59
2023/05/21 12:32:07;;;;;;;14.07;6.32;;;20.00;99.90;;;;;;5133286;27;20047;-60
2023/05/21 12:34:53;;;;;;;13.50;6.25;;;19.80;99.90;;;;;;5133397;27;20038;-60
2023/05/21 12:37:34;;;;;;;11.07;6.63;;;20.00;99.90;;;;;;5133005;27;20095;-61
2023/05/21 12:40:03;;;;;;;11.30;6.72;;;20.30;99.90;;;;;;5130505;27;20476;-60
2023/05/21 12:42:34;;;;;;;14.07;6.72;;;19.90;99.90;;;;;;5132102;27;20035;-60